Portada
METAR-TAF:

METAR-TAF

Aeroports :

Ilo, Perú

latitud: 17-41-45S, longitud: 071-20-35W, altitud: 22 m

Observació

L'informe es va fer fa 6 hores i 46 minuts, a les 21:00 UTC
Vent 10 kt del Sud/Sud-Est
Temperatura 18°C
Humitat 73%
Pressió 1016 hPa
Visibilitat 10 km o més
Cel cobert a una alçada de 2500 ft

METAR: SPLO 212100Z 16010KT 9999 OVC025 18/13 Q1016 RMK TX19.0 PPOOO

Hora: 22:46 (03:46 UTC)

Pronòstic

L'informe es va fer fa 10 hores i 46 minuts, a les 17:00 UTC
Pronòstic vàlid del 21 a les 18 UTC al 22 a les 18 UTC
Vent 9 kt del Sud
Visibilitat 10 km o més
Cel ennuvolat a una alçada de 3000 ft
A partir de les 22 a les 0000 UTC
Vent 4 kt del Est/Sud-Est
Visibilitat: 7000 m
Cel cobert a una alçada de 1700 ft
A partir de les 22 a les 1600 UTC
Vent 6 kt del Sud/Sud-Est
Visibilitat 10 km o més
Núvols disperses a una alçada de 3000 ft

TAF: SPLO 211700Z 2118/2218 17009KT 9999 BKN030 TX20/2119Z TN13/2211Z FM220000 12004KT 7000 OVC017 FM221600 16006KT 9999 SCT030

Observacions i pronòstics meteorològics de més de 4000 aeroports (METAR i TAF).

Les estacions disponibles són els punts grocs i vermells al mapa.

Posi el ratolí al punt desitjat per veure el nom de l'estació.

Feu clic per veure les observacions i els pronòstics meteorològics.

Per canviar el mapa: feu clic els botons verds amb una creu de color negre per apropar; al botó verd amb un guió per allunyar la imatge; o en les fletxes verdes per a mapes adjacents.


METAR-TAF: